createdAt,value
2018-06-11T00:01:33.487Z,77.76
2018-06-11T00:03:59.779Z,77.65
2018-06-11T00:06:26.069Z,76.72
2018-06-11T00:08:52.360Z,76.73
2018-06-11T00:11:18.658Z,76.58
2018-06-11T00:13:44.949Z,76.50
2018-06-11T00:16:11.280Z,76.30
2018-06-11T00:18:37.568Z,76.17
2018-06-11T00:21:03.862Z,75.59
2018-06-11T00:23:30.157Z,75.25
2018-06-11T00:25:56.489Z,74.98
2018-06-11T00:28:22.775Z,75.30
2018-06-11T00:30:49.068Z,75.38
2018-06-11T00:33:15.367Z,75.30
2018-06-11T00:35:41.656Z,75.47
2018-06-11T00:38:07.948Z,75.42
2018-06-11T00:40:34.236Z,75.58
2018-06-11T00:43:00.526Z,75.53
2018-06-11T00:45:26.815Z,75.61
2018-06-11T00:47:53.110Z,75.62
2018-06-11T00:50:19.404Z,75.61
2018-06-11T00:52:45.698Z,75.75
2018-06-11T00:55:12.022Z,75.93
2018-06-11T00:57:38.312Z,76.26
2018-06-11T01:00:04.645Z,75.42
2018-06-11T01:02:30.939Z,75.50
2018-06-11T01:04:57.228Z,75.16
2018-06-11T01:07:23.564Z,75.16
2018-06-11T01:09:49.850Z,75.13
2018-06-11T01:12:16.186Z,74.57
2018-06-11T01:14:42.478Z,74.65
2018-06-11T01:17:08.821Z,74.86
2018-06-11T01:19:35.108Z,73.73
2018-06-11T01:22:01.411Z,72.94
2018-06-11T01:24:27.698Z,73.44
2018-06-11T01:26:54.032Z,73.43
2018-06-11T01:29:20.390Z,73.46
2018-06-11T01:31:46.685Z,73.07
2018-06-11T01:34:12.976Z,72.84
2018-06-11T01:36:39.269Z,72.94
2018-06-11T01:39:05.568Z,73.07
2018-06-11T01:41:31.851Z,72.25
2018-06-11T01:43:58.142Z,72.41
2018-06-11T01:46:24.445Z,72.35
2018-06-11T01:48:50.754Z,71.91
2018-06-11T01:51:17.039Z,71.56
2018-06-11T01:53:43.334Z,70.78
2018-06-11T01:56:09.631Z,71.54
2018-06-11T02:01:01.997Z,71.64
2018-06-11T02:03:28.315Z,70.71
2018-06-11T02:05:54.598Z,70.84
2018-06-11T02:08:20.892Z,71.39
2018-06-11T02:10:47.183Z,71.38
2018-06-11T02:13:13.476Z,71.37
2018-06-11T02:15:39.766Z,72.15
2018-06-11T02:18:06.055Z,71.73
2018-06-11T02:20:32.354Z,71.82
2018-06-11T02:22:58.694Z,70.91
2018-06-11T02:25:25.027Z,71.22
2018-06-11T02:27:51.356Z,71.99
2018-06-11T02:30:17.684Z,71.49
2018-06-11T02:32:43.982Z,71.32
2018-06-11T02:35:10.276Z,71.04
2018-06-11T02:37:36.570Z,70.63
2018-06-11T02:40:02.875Z,70.97
2018-06-11T02:42:29.204Z,71.23
2018-06-11T02:44:55.497Z,70.75
2018-06-11T02:47:21.833Z,70.95
2018-06-11T02:49:48.125Z,71.16
2018-06-11T02:52:14.459Z,71.37
2018-06-11T02:54:40.748Z,71.44
2018-06-11T02:57:07.035Z,71.92
2018-06-11T02:59:33.330Z,72.21
2018-06-11T03:01:59.626Z,72.42
2018-06-11T03:04:25.919Z,72.33
2018-06-11T03:06:52.204Z,72.47
2018-06-11T03:09:18.500Z,71.34
2018-06-11T03:11:44.782Z,71.91
2018-06-11T03:14:11.111Z,70.75
2018-06-11T03:16:37.403Z,70.83
2018-06-11T03:19:03.688Z,70.87
2018-06-11T03:21:29.981Z,71.01
2018-06-11T03:23:56.267Z,70.09
2018-06-11T03:26:22.557Z,69.62
2018-06-11T03:28:48.855Z,70.72
2018-06-11T03:31:15.183Z,70.78
2018-06-11T03:33:41.470Z,70.77
2018-06-11T03:36:07.794Z,71.09
2018-06-11T03:38:34.084Z,70.64
2018-06-11T03:41:00.416Z,70.71
2018-06-11T03:43:26.711Z,70.12
2018-06-11T03:45:53.010Z,70.35
2018-06-11T03:48:19.344Z,70.43
2018-06-11T03:50:45.640Z,71.54
2018-06-11T03:53:11.927Z,72.47
2018-06-11T03:55:38.215Z,73.37
2018-06-11T03:58:04.511Z,73.95
2018-06-11T04:00:30.799Z,74.42
2018-06-11T04:02:57.088Z,74.84
2018-06-11T04:05:23.380Z,75.10
2018-06-11T04:07:49.666Z,75.14
2018-06-11T04:10:15.958Z,75.35
2018-06-11T04:12:42.248Z,75.55
2018-06-11T04:15:08.539Z,75.60
2018-06-11T04:17:34.827Z,75.84
2018-06-11T04:20:01.125Z,75.77
2018-06-11T04:22:27.416Z,75.78
2018-06-11T04:24:53.706Z,76.19
2018-06-11T04:27:20.008Z,76.22
2018-06-11T04:29:46.300Z,75.79
2018-06-11T04:32:12.590Z,75.22
2018-06-11T04:34:38.884Z,74.77
2018-06-11T04:37:05.194Z,74.59
2018-06-11T04:39:31.488Z,74.31
2018-06-11T04:41:57.781Z,73.53
2018-06-11T04:44:24.108Z,72.47
2018-06-11T04:46:50.402Z,71.99
2018-06-11T04:49:16.737Z,72.02
2018-06-11T04:51:43.077Z,71.55
2018-06-11T04:54:09.363Z,71.64
2018-06-11T04:56:35.655Z,70.43
2018-06-11T04:59:01.962Z,69.37
2018-06-11T05:01:28.253Z,68.91
2018-06-11T05:03:54.547Z,68.18
2018-06-11T05:06:20.841Z,67.53
2018-06-11T05:08:47.138Z,67.76
2018-06-11T05:11:13.433Z,67.74
2018-06-11T05:13:39.768Z,67.21
2018-06-11T05:16:06.058Z,66.05
2018-06-11T05:18:32.348Z,64.85
2018-06-11T05:20:58.644Z,63.88
2018-06-11T05:23:24.941Z,63.95
2018-06-11T05:25:51.238Z,63.38
2018-06-11T05:28:17.532Z,62.72
2018-06-11T05:30:43.827Z,62.11
2018-06-11T05:33:10.112Z,59.86
2018-06-11T05:35:36.415Z,57.37
2018-06-11T05:38:02.712Z,56.69
2018-06-11T05:40:29.030Z,55.02
2018-06-11T05:42:55.314Z,53.96
2018-06-11T05:45:21.609Z,54.63
2018-06-11T05:47:47.899Z,50.10
2018-06-11T05:50:14.197Z,49.85
2018-06-11T05:52:40.482Z,48.94
2018-06-11T05:55:06.775Z,48.71
2018-06-11T05:57:33.064Z,49.47
2018-06-11T05:59:59.357Z,48.13
2018-06-11T06:02:25.666Z,46.50
2018-06-11T06:04:52.025Z,45.76
2018-06-11T06:07:18.354Z,45.13
2018-06-11T06:09:44.641Z,44.90
2018-06-11T06:12:10.930Z,44.66
2018-06-11T06:14:37.264Z,44.80
2018-06-11T06:17:03.562Z,40.08
2018-06-11T06:19:29.897Z,40.08
2018-06-11T06:21:56.139Z,39.19
2018-06-11T06:24:22.433Z,39.79
2018-06-11T06:26:48.752Z,38.93
2018-06-11T06:29:15.012Z,39.76
2018-06-11T06:31:41.311Z,38.71
2018-06-11T06:34:07.609Z,39.13
2018-06-11T06:36:33.891Z,38.95
2018-06-11T06:39:00.183Z,39.95
2018-06-11T06:41:26.472Z,40.47
2018-06-11T06:43:52.770Z,41.37
2018-06-11T06:46:19.072Z,41.29
2018-06-11T06:48:45.358Z,40.88
2018-06-11T06:51:11.651Z,41.06
2018-06-11T06:53:37.973Z,41.19
2018-06-11T06:56:04.232Z,41.58
2018-06-11T06:58:30.524Z,40.87
2018-06-11T07:00:56.817Z,39.78
2018-06-11T07:03:23.105Z,39.57
2018-06-11T07:05:49.403Z,39.37
2018-06-11T07:08:15.693Z,39.74
2018-06-11T07:10:41.990Z,39.16
2018-06-11T07:13:08.281Z,40.03
2018-06-11T07:15:34.602Z,38.32
2018-06-11T07:18:00.904Z,38.17
2018-06-11T07:20:27.203Z,39.06
2018-06-11T07:22:53.492Z,39.28
2018-06-11T07:25:19.790Z,39.46
2018-06-11T07:27:46.075Z,39.31
2018-06-11T07:30:12.406Z,39.07
2018-06-11T07:32:38.701Z,38.91
2018-06-11T07:35:05.048Z,38.94
2018-06-11T07:37:31.377Z,38.89
2018-06-11T07:39:57.639Z,39.02
2018-06-11T07:42:23.937Z,39.11
2018-06-11T07:44:50.232Z,39.00
2018-06-11T07:47:16.524Z,38.03
2018-06-11T07:49:42.810Z,37.93
2018-06-11T07:52:09.134Z,37.31
2018-06-11T07:54:35.423Z,37.28
2018-06-11T07:57:01.717Z,37.05
2018-06-11T07:59:28.006Z,36.53
2018-06-11T08:01:54.304Z,36.50
2018-06-11T08:04:20.585Z,36.44
2018-06-11T08:06:46.874Z,36.41
2018-06-11T08:09:13.165Z,36.08
2018-06-11T08:11:39.458Z,36.96
2018-06-11T08:14:05.749Z,36.95
2018-06-11T08:16:32.044Z,37.28
2018-06-11T08:18:58.336Z,36.69
2018-06-11T08:21:24.626Z,36.53
2018-06-11T08:23:50.917Z,36.16
2018-06-11T08:26:17.242Z,35.65
2018-06-11T08:28:43.528Z,35.42
2018-06-11T08:31:09.822Z,35.67
2018-06-11T08:33:36.122Z,36.76
2018-06-11T08:36:02.414Z,36.81
2018-06-11T08:38:28.698Z,36.86
2018-06-11T08:40:54.987Z,37.42
2018-06-11T08:43:21.284Z,38.35
2018-06-11T08:45:47.616Z,38.02
2018-06-11T08:48:13.913Z,37.79
2018-06-11T08:50:40.205Z,36.68
2018-06-11T08:53:06.503Z,36.86
2018-06-11T08:55:32.801Z,37.08
2018-06-11T08:57:59.095Z,36.19
2018-06-11T09:00:25.389Z,37.07
2018-06-11T09:02:51.684Z,36.55
2018-06-11T09:05:17.970Z,37.70
2018-06-11T09:07:44.258Z,36.28
2018-06-11T09:10:10.549Z,36.48
2018-06-11T09:12:36.884Z,36.20
2018-06-11T09:15:03.125Z,35.88
2018-06-11T09:17:29.416Z,35.56
2018-06-11T09:19:55.752Z,34.87
2018-06-11T09:22:22.066Z,35.96
2018-06-11T09:24:48.349Z,35.60
2018-06-11T09:27:14.640Z,35.63
2018-06-11T09:29:40.935Z,35.07
2018-06-11T09:32:07.221Z,34.96
2018-06-11T09:34:33.511Z,34.76
2018-06-11T09:36:59.844Z,34.59
2018-06-11T09:39:26.137Z,34.87
2018-06-11T09:41:52.477Z,34.40
2018-06-11T09:44:18.760Z,35.66
2018-06-11T09:46:45.094Z,35.50
2018-06-11T09:49:11.407Z,34.05
2018-06-11T09:51:37.727Z,33.87
2018-06-11T09:54:04.015Z,34.02
2018-06-11T09:56:30.355Z,34.65
2018-06-11T09:58:56.643Z,33.91
2018-06-11T10:01:22.934Z,34.21
2018-06-11T10:03:49.265Z,35.57
2018-06-11T10:06:15.558Z,34.87
2018-06-11T10:08:41.850Z,33.95
2018-06-11T10:11:08.142Z,34.65
2018-06-11T10:13:34.481Z,35.20
2018-06-11T10:16:00.741Z,34.83
2018-06-11T10:18:27.034Z,32.76
2018-06-11T10:20:53.337Z,33.48
2018-06-11T10:23:19.636Z,33.32
2018-06-11T10:25:45.936Z,34.17
2018-06-11T10:28:12.227Z,33.60
2018-06-11T10:30:38.564Z,33.28
2018-06-11T10:33:04.855Z,33.55
2018-06-11T10:35:31.200Z,33.96
2018-06-11T10:37:57.510Z,34.24
2018-06-11T10:40:23.800Z,34.10
2018-06-11T10:42:50.099Z,33.88
2018-06-11T10:45:16.390Z,33.96
2018-06-11T10:47:42.678Z,33.91
2018-06-11T10:50:08.972Z,33.46
2018-06-11T10:52:35.260Z,33.59
2018-06-11T10:55:01.552Z,33.04
2018-06-11T10:57:27.840Z,33.98
2018-06-11T10:59:54.130Z,33.28
2018-06-11T11:02:20.418Z,34.21
2018-06-11T11:04:46.707Z,34.04
2018-06-11T11:07:12.999Z,33.86
2018-06-11T11:09:39.293Z,33.18
2018-06-11T11:12:05.589Z,32.62
2018-06-11T11:14:31.883Z,31.92
2018-06-11T11:16:58.182Z,33.09
2018-06-11T11:19:24.512Z,34.20
2018-06-11T11:21:50.859Z,34.29
2018-06-11T11:24:17.103Z,33.94
2018-06-11T11:26:43.393Z,33.73
2018-06-11T11:29:09.689Z,33.92
2018-06-11T11:31:36.035Z,34.29
2018-06-11T11:34:02.308Z,34.46
2018-06-11T11:36:28.597Z,33.71
2018-06-11T11:38:54.894Z,33.60
2018-06-11T11:41:21.225Z,34.39
2018-06-11T11:43:47.510Z,34.57
2018-06-11T11:46:13.842Z,34.55
2018-06-11T11:48:40.180Z,32.91
2018-06-11T11:51:06.483Z,33.03
2018-06-11T11:53:32.765Z,32.83
2018-06-11T11:55:59.057Z,32.50
2018-06-11T11:58:25.355Z,33.33
2018-06-11T12:00:51.677Z,33.51
2018-06-11T12:03:17.966Z,33.99
2018-06-11T12:05:44.263Z,32.70
2018-06-11T12:08:10.558Z,32.58
2018-06-11T12:10:36.890Z,31.18
2018-06-11T12:13:03.195Z,31.73
2018-06-11T12:15:29.488Z,31.99
2018-06-11T12:17:55.828Z,31.78
2018-06-11T12:20:22.122Z,30.76
2018-06-11T12:22:48.409Z,30.57
2018-06-11T12:25:14.747Z,31.88
2018-06-11T12:27:41.046Z,32.31
2018-06-11T12:30:07.335Z,33.59
2018-06-11T12:32:33.628Z,32.94
2018-06-11T12:34:59.924Z,33.96
2018-06-11T12:37:26.217Z,33.73
2018-06-11T12:39:52.511Z,32.72
2018-06-11T12:42:18.799Z,32.65
2018-06-11T12:44:45.127Z,32.98
2018-06-11T12:47:11.410Z,32.33
2018-06-11T12:49:37.748Z,32.08
2018-06-11T12:52:04.034Z,31.79
2018-06-11T12:54:30.324Z,31.79
2018-06-11T12:56:56.613Z,31.84
2018-06-11T12:59:22.939Z,30.40
2018-06-11T13:01:49.270Z,29.86
2018-06-11T13:04:15.555Z,28.86
2018-06-11T13:06:41.932Z,30.50
2018-06-11T13:09:08.196Z,30.77
2018-06-11T13:11:34.482Z,31.37
2018-06-11T13:14:00.834Z,31.35
2018-06-11T13:16:27.134Z,32.44
2018-06-11T13:18:53.423Z,31.63
2018-06-11T13:21:19.717Z,30.76
2018-06-11T13:23:46.026Z,30.21
2018-06-11T13:26:12.327Z,28.43
2018-06-11T13:28:38.624Z,28.01
2018-06-11T13:31:04.927Z,26.97
2018-06-11T13:33:31.215Z,29.72
2018-06-11T13:35:57.517Z,32.23
2018-06-11T13:38:23.807Z,33.15
2018-06-11T13:40:50.101Z,33.66
2018-06-11T13:43:16.388Z,33.36
2018-06-11T13:45:42.683Z,33.05
2018-06-11T13:48:08.976Z,35.04
2018-06-11T13:50:35.266Z,35.92
2018-06-11T13:53:01.553Z,36.14
2018-06-11T13:55:27.842Z,35.84
2018-06-11T13:57:54.130Z,36.13
2018-06-11T14:00:20.414Z,38.69
2018-06-11T14:02:46.707Z,38.06
2018-06-11T14:05:12.990Z,36.12
2018-06-11T14:07:39.282Z,37.67
2018-06-11T14:10:05.583Z,38.92
2018-06-11T14:12:31.878Z,38.93
2018-06-11T14:14:58.218Z,38.15
2018-06-11T14:17:24.505Z,38.03
2018-06-11T14:19:50.803Z,38.45
2018-06-11T14:22:17.101Z,38.80
2018-06-11T14:24:43.402Z,39.35
2018-06-11T14:27:09.699Z,40.07
2018-06-11T14:29:35.999Z,40.04
2018-06-11T14:32:02.289Z,40.06
2018-06-11T14:34:28.603Z,39.93
2018-06-11T14:36:54.892Z,39.78
2018-06-11T14:39:21.187Z,40.09
2018-06-11T14:41:47.529Z,40.30
2018-06-11T14:44:13.822Z,40.36
2018-06-11T14:46:40.114Z,40.44
2018-06-11T14:49:06.409Z,40.46
2018-06-11T14:51:32.713Z,39.80
2018-06-11T14:53:59.018Z,39.98
2018-06-11T14:56:25.317Z,40.22
2018-06-11T14:58:51.608Z,39.13
2018-06-11T15:01:17.902Z,39.51
2018-06-11T15:03:44.223Z,39.84
2018-06-11T15:06:10.489Z,39.85
2018-06-11T15:08:36.798Z,39.40
2018-06-11T15:11:03.078Z,39.22
2018-06-11T15:13:29.363Z,38.60
2018-06-11T15:15:55.718Z,38.93
2018-06-11T15:18:22.015Z,38.64
2018-06-11T15:20:48.445Z,38.77
2018-06-11T15:23:14.678Z,38.55
2018-06-11T15:25:40.970Z,38.15
2018-06-11T15:28:07.258Z,39.12
2018-06-11T15:30:33.570Z,42.34
2018-06-11T15:32:59.865Z,44.20
2018-06-11T15:35:26.163Z,44.52
2018-06-11T15:37:52.466Z,44.45
2018-06-11T15:40:18.756Z,44.67
2018-06-11T15:42:45.053Z,44.63
2018-06-11T15:45:11.349Z,45.03
2018-06-11T15:47:37.649Z,44.89
2018-06-11T15:50:03.974Z,44.98
2018-06-11T15:52:30.271Z,45.46
2018-06-11T15:54:56.560Z,45.51
2018-06-11T15:57:22.857Z,44.77
2018-06-11T15:59:49.180Z,44.52
2018-06-11T16:02:15.473Z,44.73
2018-06-11T16:04:41.781Z,44.73
2018-06-11T16:07:08.097Z,44.88
2018-06-11T16:09:34.395Z,44.87
2018-06-11T16:12:00.713Z,44.06
2018-06-11T16:14:26.999Z,44.06
2018-06-11T16:16:53.298Z,44.45
2018-06-11T16:19:19.588Z,43.10
2018-06-11T16:21:45.877Z,43.22
2018-06-11T16:24:12.158Z,43.95
2018-06-11T16:26:38.454Z,43.90
2018-06-11T16:29:04.759Z,44.05
2018-06-11T16:31:31.047Z,45.47
2018-06-11T16:33:57.343Z,46.41
2018-06-11T16:36:23.642Z,46.94
2018-06-11T16:38:49.936Z,47.25
2018-06-11T16:41:16.224Z,47.64
2018-06-11T16:43:42.511Z,47.67
2018-06-11T16:46:08.799Z,47.72
2018-06-11T16:48:35.093Z,47.94
2018-06-11T16:51:01.393Z,47.58
2018-06-11T16:53:27.679Z,48.18
2018-06-11T16:55:53.989Z,48.89
2018-06-11T16:58:20.287Z,49.04
2018-06-11T17:00:46.580Z,48.54
2018-06-11T17:03:12.884Z,48.98
2018-06-11T17:05:39.179Z,49.04
2018-06-11T17:08:05.501Z,49.25
2018-06-11T17:10:31.806Z,49.65
2018-06-11T17:12:58.092Z,49.88
2018-06-11T17:15:24.382Z,50.36
2018-06-11T17:17:50.674Z,50.53
2018-06-11T17:20:17.038Z,50.72
2018-06-11T17:22:43.279Z,51.15
2018-06-11T17:25:09.573Z,51.57
2018-06-11T17:27:35.906Z,52.07
2018-06-11T17:30:02.206Z,52.43
2018-06-11T17:32:28.498Z,52.91
2018-06-11T17:34:54.795Z,53.24
2018-06-11T17:37:21.084Z,53.49
2018-06-11T17:39:47.388Z,53.90
2018-06-11T17:42:13.679Z,54.10
2018-06-11T17:44:40.033Z,54.73
2018-06-11T17:47:06.268Z,54.92
2018-06-11T17:49:32.564Z,55.43
2018-06-11T17:51:58.862Z,55.55
2018-06-11T17:54:25.170Z,55.88
2018-06-11T17:56:51.439Z,56.01
2018-06-11T17:59:17.737Z,56.35
2018-06-11T18:01:44.023Z,56.63
2018-06-11T18:04:10.403Z,56.70
2018-06-11T18:06:36.653Z,56.89
2018-06-11T18:09:02.957Z,56.95
2018-06-11T18:11:29.287Z,57.21
2018-06-11T18:13:55.616Z,57.42
2018-06-11T18:16:21.903Z,57.58
2018-06-11T18:18:48.195Z,57.24
2018-06-11T18:21:14.540Z,57.40
2018-06-11T18:23:42.176Z,57.62
2018-06-11T18:26:07.124Z,57.61
2018-06-11T18:28:33.418Z,57.72
2018-06-11T18:30:59.715Z,58.19
2018-06-11T18:33:26.001Z,58.02
2018-06-11T18:35:52.305Z,58.25
2018-06-11T18:38:18.601Z,58.02
2018-06-11T18:40:44.932Z,58.17
2018-06-11T18:43:11.261Z,58.46
2018-06-11T18:45:37.546Z,58.51
2018-06-11T18:48:03.881Z,58.40
2018-06-11T18:50:30.249Z,58.43
2018-06-11T18:52:56.535Z,58.54
2018-06-11T18:55:22.828Z,58.62
2018-06-11T18:57:49.135Z,59.03
2018-06-11T19:00:15.414Z,59.17
2018-06-11T19:02:41.715Z,59.66
2018-06-11T19:05:07.998Z,59.79
2018-06-11T19:07:34.301Z,59.75
2018-06-11T19:10:00.591Z,60.03
2018-06-11T19:12:26.888Z,60.16
2018-06-11T19:14:53.176Z,60.21
2018-06-11T19:17:19.470Z,60.56
2018-06-11T19:19:45.765Z,60.79
2018-06-11T19:22:12.055Z,60.95
2018-06-11T19:24:38.355Z,60.96
2018-06-11T19:27:04.649Z,61.25
2018-06-11T19:29:30.951Z,61.49
2018-06-11T19:31:57.250Z,61.74
2018-06-11T19:34:23.555Z,62.10
2018-06-11T19:36:49.857Z,62.25
2018-06-11T19:39:16.146Z,62.22
2018-06-11T19:41:42.470Z,62.31
2018-06-11T19:44:08.761Z,62.25
2018-06-11T19:46:35.051Z,62.20
2018-06-11T19:49:01.340Z,61.99
2018-06-11T19:51:27.634Z,62.29
2018-06-11T19:53:53.926Z,62.24
2018-06-11T19:56:20.211Z,61.74
2018-06-11T19:58:46.550Z,61.53
2018-06-11T20:01:12.843Z,61.11
2018-06-11T20:03:39.134Z,61.43
2018-06-11T20:06:05.428Z,61.41
2018-06-11T20:08:31.760Z,61.43
2018-06-11T20:10:58.057Z,61.42
2018-06-11T20:13:24.353Z,61.42
2018-06-11T20:15:50.720Z,61.73
2018-06-11T20:18:16.975Z,61.77
2018-06-11T20:20:43.317Z,61.92
2018-06-11T20:23:09.609Z,61.87
2018-06-11T20:25:35.895Z,61.88
2018-06-11T20:28:02.191Z,62.17
2018-06-11T20:30:28.515Z,62.27
2018-06-11T20:32:54.808Z,61.43
2018-06-11T20:35:21.100Z,61.24
2018-06-11T20:37:47.417Z,61.01
2018-06-11T20:40:13.703Z,60.27
2018-06-11T20:42:39.996Z,59.88
2018-06-11T20:45:06.284Z,59.81
2018-06-11T20:47:32.878Z,60.12
2018-06-11T20:49:59.206Z,59.90
2018-06-11T20:52:25.536Z,60.11
2018-06-11T20:54:51.838Z,60.46
2018-06-11T20:57:18.129Z,60.31
2018-06-11T20:59:44.420Z,60.54
2018-06-11T21:02:10.711Z,60.74
2018-06-11T21:04:36.998Z,60.61
2018-06-11T21:07:03.295Z,60.80
2018-06-11T21:09:29.589Z,60.94
2018-06-11T21:11:55.885Z,61.20
2018-06-11T21:14:22.180Z,61.39
2018-06-11T21:16:48.477Z,61.72
2018-06-11T21:19:14.770Z,61.97
2018-06-11T21:21:41.102Z,62.07
2018-06-11T21:24:07.409Z,62.33
2018-06-11T21:26:33.685Z,62.56
2018-06-11T21:28:59.984Z,62.98
2018-06-11T21:31:26.274Z,63.34
2018-06-11T21:33:52.562Z,63.54
2018-06-11T21:36:18.886Z,63.97
2018-06-11T21:38:45.216Z,64.33
2018-06-11T21:41:11.510Z,64.83
2018-06-11T21:43:37.806Z,65.30
2018-06-11T21:46:04.100Z,65.38
2018-06-11T21:48:30.399Z,65.87
2018-06-11T21:50:56.723Z,65.60
2018-06-11T21:53:23.014Z,65.52
2018-06-11T21:55:49.310Z,66.09
2018-06-11T21:58:15.606Z,66.58
2018-06-11T22:00:41.907Z,66.85
2018-06-11T22:03:08.284Z,67.03
2018-06-11T22:05:34.571Z,67.25
2018-06-11T22:08:00.884Z,67.15
2018-06-11T22:10:27.187Z,67.17
2018-06-11T22:12:53.505Z,66.69
2018-06-11T22:15:19.844Z,66.69
2018-06-11T22:17:46.143Z,66.69
2018-06-11T22:20:12.441Z,67.11
2018-06-11T22:22:38.725Z,67.27
2018-06-11T22:25:05.019Z,67.27
2018-06-11T22:27:31.340Z,66.99
2018-06-11T22:29:57.640Z,67.18
2018-06-11T22:32:23.989Z,67.07
2018-06-11T22:34:50.283Z,67.01
2018-06-11T22:37:16.571Z,67.15
2018-06-11T22:39:42.909Z,67.06
2018-06-11T22:42:09.200Z,66.99
2018-06-11T22:44:35.501Z,67.13
2018-06-11T22:47:01.803Z,67.54
2018-06-11T22:49:28.094Z,68.74
2018-06-11T22:51:54.390Z,69.34
2018-06-11T22:54:20.723Z,69.61
2018-06-11T22:56:47.008Z,69.84
2018-06-11T22:59:13.299Z,70.45
2018-06-11T23:01:39.593Z,70.16
2018-06-11T23:04:05.886Z,69.21
2018-06-11T23:06:32.178Z,67.98
2018-06-11T23:08:58.472Z,67.74
2018-06-11T23:11:24.778Z,68.06
2018-06-11T23:13:51.104Z,67.96
2018-06-11T23:16:17.403Z,67.93
2018-06-11T23:18:43.696Z,68.38
2018-06-11T23:21:09.996Z,68.88
2018-06-11T23:23:36.344Z,69.43
2018-06-11T23:26:02.637Z,69.57
2018-06-11T23:28:28.923Z,69.70
2018-06-11T23:30:55.220Z,69.59
2018-06-11T23:33:21.505Z,70.10
2018-06-11T23:35:47.803Z,69.88
2018-06-11T23:38:14.092Z,70.09
2018-06-11T23:40:40.392Z,69.84
2018-06-11T23:43:06.679Z,69.67
2018-06-11T23:45:32.969Z,69.46
2018-06-11T23:47:59.259Z,69.05
2018-06-11T23:50:25.552Z,68.96
2018-06-11T23:52:51.842Z,68.60
2018-06-11T23:55:18.178Z,68.50
2018-06-11T23:57:44.462Z,68.56
